sensor_id;sensor_type;location;lat;lon;timestamp;pressure;altitude;pressure_sealevel;temperature;humidity
63691;BME280;49837;57.280;27.070;2023-02-18T00:00:02;97982.12;;;-1.74;100.0
63691;BME280;49837;57.280;27.070;2023-02-18T00:01:02;97981.91;;;-1.75;100.0
63691;BME280;49837;57.280;27.070;2023-02-18T00:02:04;97981.51;;;-1.75;100.0
63691;BME280;49837;57.280;27.070;2023-02-18T00:03:05;97970.31;;;-1.71;100.0
63691;BME280;49837;57.280;27.070;2023-02-18T00:04:05;97978.03;;;-1.73;100.0
63691;BME280;49837;57.280;27.070;2023-02-18T00:05:05;97962.58;;;-1.76;100.0
63691;BME280;49837;57.280;27.070;2023-02-18T00:06:20;97959.05;;;-1.75;100.0
63691;BME280;49837;57.280;27.070;2023-02-18T00:07:07;97957.88;;;-1.79;100.0
63691;BME280;49837;57.280;27.070;2023-02-18T00:08:07;97954.41;;;-1.77;100.0
63691;BME280;49837;57.280;27.070;2023-02-18T00:09:09;97965.11;;;-1.77;100.0
63691;BME280;49837;57.280;27.070;2023-02-18T00:10:11;97952.55;;;-1.74;100.0
63691;BME280;49837;57.280;27.070;2023-02-18T00:11:09;97954.51;;;-1.79;100.0
63691;BME280;49837;57.280;27.070;2023-02-18T00:12:09;97945.44;;;-1.79;100.0
63691;BME280;49837;57.280;27.070;2023-02-18T00:13:10;97944.39;;;-1.8;100.0
63691;BME280;49837;57.280;27.070;2023-02-18T00:14:12;97946.66;;;-1.78;100.0
63691;BME280;49837;57.280;27.070;2023-02-18T00:15:11;97935.23;;;-1.79;100.0
63691;BME280;49837;57.280;27.070;2023-02-18T00:16:11;97934.88;;;-1.82;100.0
63691;BME280;49837;57.280;27.070;2023-02-18T00:17:11;97936.14;;;-1.79;100.0
63691;BME280;49837;57.280;27.070;2023-02-18T00:18:11;97937.98;;;-1.78;100.0
63691;BME280;49837;57.280;27.070;2023-02-18T00:19:14;97930.55;;;-1.83;100.0
63691;BME280;49837;57.280;27.070;2023-02-18T00:20:12;97931.38;;;-1.84;100.0
63691;BME280;49837;57.280;27.070;2023-02-18T00:21:13;97921.08;;;-1.83;100.0
63691;BME280;49837;57.280;27.070;2023-02-18T00:22:13;97915.59;;;-1.83;100.0
63691;BME280;49837;57.280;27.070;2023-02-18T00:23:13;97914.98;;;-1.8;100.0
63691;BME280;49837;57.280;27.070;2023-02-18T00:24:15;97910.0;;;-1.81;100.0
63691;BME280;49837;57.280;27.070;2023-02-18T00:25:14;97909.94;;;-1.82;100.0
63691;BME280;49837;57.280;27.070;2023-02-18T00:26:16;97905.92;;;-1.81;100.0
63691;BME280;49837;57.280;27.070;2023-02-18T00:27:15;97913.25;;;-1.8;100.0
63691;BME280;49837;57.280;27.070;2023-02-18T00:28:15;97901.69;;;-1.82;100.0
63691;BME280;49837;57.280;27.070;2023-02-18T00:29:15;97894.83;;;-1.83;100.0
63691;BME280;49837;57.280;27.070;2023-02-18T00:30:16;97898.17;;;-1.82;100.0
63691;BME280;49837;57.280;27.070;2023-02-18T00:31:19;97892.3;;;-1.83;100.0
63691;BME280;49837;57.280;27.070;2023-02-18T00:32:17;97893.39;;;-1.79;100.0
63691;BME280;49837;57.280;27.070;2023-02-18T00:33:17;97877.09;;;-1.82;100.0
63691;BME280;49837;57.280;27.070;2023-02-18T00:34:18;97889.22;;;-1.78;100.0
63691;BME280;49837;57.280;27.070;2023-02-18T00:35:18;97886.42;;;-1.77;100.0
63691;BME280;49837;57.280;27.070;2023-02-18T00:36:20;97882.69;;;-1.84;100.0
63691;BME280;49837;57.280;27.070;2023-02-18T00:37:19;97879.62;;;-1.82;100.0
63691;BME280;49837;57.280;27.070;2023-02-18T00:38:19;97884.69;;;-1.77;100.0
63691;BME280;49837;57.280;27.070;2023-02-18T00:39:19;97869.02;;;-1.78;100.0
63691;BME280;49837;57.280;27.070;2023-02-18T00:40:20;97877.73;;;-1.81;100.0
63691;BME280;49837;57.280;27.070;2023-02-18T00:41:22;97874.62;;;-1.81;100.0
63691;BME280;49837;57.280;27.070;2023-02-18T00:42:20;97870.81;;;-1.82;100.0
63691;BME280;49837;57.280;27.070;2023-02-18T00:43:21;97872.77;;;-1.83;100.0
63691;BME280;49837;57.280;27.070;2023-02-18T00:44:21;97871.27;;;-1.81;100.0
63691;BME280;49837;57.280;27.070;2023-02-18T00:45:21;97871.85;;;-1.81;100.0
63691;BME280;49837;57.280;27.070;2023-02-18T00:46:22;97860.43;;;-1.82;100.0
63691;BME280;49837;57.280;27.070;2023-02-18T00:47:22;97867.77;;;-1.81;100.0
63691;BME280;49837;57.280;27.070;2023-02-18T00:48:22;97868.59;;;-1.76;100.0
63691;BME280;49837;57.280;27.070;2023-02-18T00:49:23;97864.11;;;-1.77;100.0
63691;BME280;49837;57.280;27.070;2023-02-18T00:50:23;97853.5;;;-1.82;100.0
63691;BME280;49837;57.280;27.070;2023-02-18T00:51:24;97850.67;;;-1.85;100.0
63691;BME280;49837;57.280;27.070;2023-02-18T00:52:24;97858.98;;;-1.84;100.0
63691;BME280;49837;57.280;27.070;2023-02-18T00:53:24;97857.37;;;-1.86;100.0
63691;BME280;49837;57.280;27.070;2023-02-18T00:54:24;97852.69;;;-1.84;100.0
63691;BME280;49837;57.280;27.070;2023-02-18T00:55:34;97841.78;;;-1.81;100.0
63691;BME280;49837;57.280;27.070;2023-02-18T00:56:27;97842.95;;;-1.83;100.0
63691;BME280;49837;57.280;27.070;2023-02-18T00:57:27;97845.76;;;-1.84;100.0
63691;BME280;49837;57.280;27.070;2023-02-18T00:58:28;97832.41;;;-1.83;100.0
63691;BME280;49837;57.280;27.070;2023-02-18T00:59:28;97829.98;;;-1.83;100.0
63691;BME280;49837;57.280;27.070;2023-02-18T01:00:28;97830.52;;;-1.82;100.0
63691;BME280;49837;57.280;27.070;2023-02-18T01:01:29;97829.8;;;-1.82;100.0
63691;BME280;49837;57.280;27.070;2023-02-18T01:02:29;97823.33;;;-1.82;100.0
63691;BME280;49837;57.280;27.070;2023-02-18T01:03:29;97829.64;;;-1.79;100.0
63691;BME280;49837;57.280;27.070;2023-02-18T01:04:29;97826.05;;;-1.82;100.0
63691;BME280;49837;57.280;27.070;2023-02-18T01:05:30;97818.91;;;-1.85;100.0
63691;BME280;49837;57.280;27.070;2023-02-18T01:06:30;97817.89;;;-1.88;100.0
63691;BME280;49837;57.280;27.070;2023-02-18T01:07:30;97802.19;;;-1.82;100.0
63691;BME280;49837;57.280;27.070;2023-02-18T01:08:31;97815.11;;;-1.79;100.0
63691;BME280;49837;57.280;27.070;2023-02-18T01:09:31;97812.46;;;-1.77;100.0
63691;BME280;49837;57.280;27.070;2023-02-18T01:10:32;97816.07;;;-1.82;100.0
63691;BME280;49837;57.280;27.070;2023-02-18T01:11:32;97803.41;;;-1.83;100.0
63691;BME280;49837;57.280;27.070;2023-02-18T01:12:32;97802.66;;;-1.78;100.0
63691;BME280;49837;57.280;27.070;2023-02-18T01:13:32;97799.22;;;-1.82;100.0
63691;BME280;49837;57.280;27.070;2023-02-18T01:14:33;97792.98;;;-1.86;100.0
63691;BME280;49837;57.280;27.070;2023-02-18T01:15:33;97787.17;;;-1.85;100.0
63691;BME280;49837;57.280;27.070;2023-02-18T01:16:33;97792.16;;;-1.84;100.0
63691;BME280;49837;57.280;27.070;2023-02-18T01:17:34;97784.8;;;-1.8;100.0
63691;BME280;49837;57.280;27.070;2023-02-18T01:18:34;97786.08;;;-1.82;100.0
63691;BME280;49837;57.280;27.070;2023-02-18T01:19:34;97784.89;;;-1.8;100.0
63691;BME280;49837;57.280;27.070;2023-02-18T01:20:35;97779.62;;;-1.82;100.0
63691;BME280;49837;57.280;27.070;2023-02-18T01:21:35;97780.72;;;-1.84;100.0
63691;BME280;49837;57.280;27.070;2023-02-18T01:22:36;97778.34;;;-1.83;100.0
63691;BME280;49837;57.280;27.070;2023-02-18T01:23:37;97773.94;;;-1.8;100.0
63691;BME280;49837;57.280;27.070;2023-02-18T01:24:36;97771.22;;;-1.83;100.0
63691;BME280;49837;57.280;27.070;2023-02-18T01:25:36;97770.66;;;-1.83;100.0
63691;BME280;49837;57.280;27.070;2023-02-18T01:26:37;97768.3;;;-1.84;100.0
63691;BME280;49837;57.280;27.070;2023-02-18T01:27:37;97764.3;;;-1.8;100.0
63691;BME280;49837;57.280;27.070;2023-02-18T01:28:39;97765.76;;;-1.83;100.0
63691;BME280;49837;57.280;27.070;2023-02-18T01:29:38;97767.44;;;-1.77;100.0
63691;BME280;49837;57.280;27.070;2023-02-18T01:30:38;97761.11;;;-1.79;100.0
63691;BME280;49837;57.280;27.070;2023-02-18T01:31:38;97759.87;;;-1.84;100.0
63691;BME280;49837;57.280;27.070;2023-02-18T01:32:38;97750.43;;;-1.81;100.0
63691;BME280;49837;57.280;27.070;2023-02-18T01:33:39;97753.88;;;-1.86;100.0
63691;BME280;49837;57.280;27.070;2023-02-18T01:34:39;97746.96;;;-1.83;100.0
63691;BME280;49837;57.280;27.070;2023-02-18T01:35:40;97750.73;;;-1.8;100.0
63691;BME280;49837;57.280;27.070;2023-02-18T01:36:40;97746.23;;;-1.84;100.0
63691;BME280;49837;57.280;27.070;2023-02-18T01:37:40;97738.99;;;-1.85;100.0
63691;BME280;49837;57.280;27.070;2023-02-18T01:38:40;97732.54;;;-1.82;100.0
63691;BME280;49837;57.280;27.070;2023-02-18T01:39:41;97730.2;;;-1.78;100.0
63691;BME280;49837;57.280;27.070;2023-02-18T01:41:42;97722.19;;;-1.78;100.0
63691;BME280;49837;57.280;27.070;2023-02-18T01:42:42;97733.61;;;-1.77;100.0
63691;BME280;49837;57.280;27.070;2023-02-18T01:43:42;97725.59;;;-1.77;100.0
63691;BME280;49837;57.280;27.070;2023-02-18T01:44:43;97716.03;;;-1.77;100.0
63691;BME280;49837;57.280;27.070;2023-02-18T01:46:43;97721.03;;;-1.82;100.0
63691;BME280;49837;57.280;27.070;2023-02-18T01:47:43;97714.0;;;-1.82;100.0
63691;BME280;49837;57.280;27.070;2023-02-18T01:49:49;97711.71;;;-1.82;100.0
63691;BME280;49837;57.280;27.070;2023-02-18T01:50:53;97717.14;;;-1.8;100.0
63691;BME280;49837;57.280;27.070;2023-02-18T01:52:54;97713.64;;;-1.8;100.0
63691;BME280;49837;57.280;27.070;2023-02-18T01:54:59;97703.98;;;-1.79;100.0
63691;BME280;49837;57.280;27.070;2023-02-18T01:56:02;97706.97;;;-1.77;100.0
63691;BME280;49837;57.280;27.070;2023-02-18T01:58:03;97704.8;;;-1.75;100.0
63691;BME280;49837;57.280;27.070;2023-02-18T01:59:09;97697.81;;;-1.73;100.0
63691;BME280;49837;57.280;27.070;2023-02-18T02:00:10;97696.11;;;-1.78;100.0
63691;BME280;49837;57.280;27.070;2023-02-18T02:01:09;97694.61;;;-1.73;100.0
63691;BME280;49837;57.280;27.070;2023-02-18T02:02:12;97694.43;;;-1.71;100.0
63691;BME280;49837;57.280;27.070;2023-02-18T02:03:10;97693.59;;;-1.7;100.0
63691;BME280;49837;57.280;27.070;2023-02-18T02:04:11;97686.84;;;-1.72;100.0
63691;BME280;49837;57.280;27.070;2023-02-18T02:05:11;97686.56;;;-1.71;100.0
63691;BME280;49837;57.280;27.070;2023-02-18T02:07:14;97679.62;;;-1.71;100.0
63691;BME280;49837;57.280;27.070;2023-02-18T02:08:13;97680.47;;;-1.69;100.0
63691;BME280;49837;57.280;27.070;2023-02-18T02:09:16;97675.42;;;-1.73;100.0
63691;BME280;49837;57.280;27.070;2023-02-18T02:10:14;97663.35;;;-1.71;100.0
63691;BME280;49837;57.280;27.070;2023-02-18T02:13:44;97657.72;;;-1.63;100.0
63691;BME280;49837;57.280;27.070;2023-02-18T02:40:42;97616.66;;;-1.62;100.0
63691;BME280;49837;57.280;27.070;2023-02-18T02:46:46;97601.33;;;-1.59;100.0
63691;BME280;49837;57.280;27.070;2023-02-18T02:50:16;97594.7;;;-1.59;100.0
63691;BME280;49837;57.280;27.070;2023-02-18T02:53:14;97589.17;;;-1.56;100.0
63691;BME280;49837;57.280;27.070;2023-02-18T02:54:16;97583.68;;;-1.55;100.0
63691;BME280;49837;57.280;27.070;2023-02-18T02:55:10;97576.3;;;-1.58;100.0
63691;BME280;49837;57.280;27.070;2023-02-18T02:56:20;97580.16;;;-1.55;100.0
63691;BME280;49837;57.280;27.070;2023-02-18T02:58:16;97577.09;;;-1.51;100.0
63691;BME280;49837;57.280;27.070;2023-02-18T03:00:26;97578.4;;;-1.51;100.0
63691;BME280;49837;57.280;27.070;2023-02-18T03:11:06;97567.09;;;-1.38;100.0
63691;BME280;49837;57.280;27.070;2023-02-18T03:13:06;97554.37;;;-1.43;100.0
63691;BME280;49837;57.280;27.070;2023-02-18T03:14:12;97548.88;;;-1.39;100.0
63691;BME280;49837;57.280;27.070;2023-02-18T03:18:20;97552.98;;;-1.3;100.0
63691;BME280;49837;57.280;27.070;2023-02-18T03:22:26;97542.9;;;-1.35;100.0
63691;BME280;49837;57.280;27.070;2023-02-18T03:25:32;97535.58;;;-1.3;100.0
63691;BME280;49837;57.280;27.070;2023-02-18T03:26:33;97535.58;;;-1.3;100.0
63691;BME280;49837;57.280;27.070;2023-02-18T03:27:38;97538.64;;;-1.24;100.0
63691;BME280;49837;57.280;27.070;2023-02-18T03:28:34;97535.97;;;-1.18;100.0
63691;BME280;49837;57.280;27.070;2023-02-18T03:29:34;97530.78;;;-1.24;100.0
63691;BME280;49837;57.280;27.070;2023-02-18T03:30:40;97528.23;;;-1.2;100.0
63691;BME280;49837;57.280;27.070;2023-02-18T03:31:39;97529.09;;;-1.18;100.0
63691;BME280;49837;57.280;27.070;2023-02-18T03:32:39;97523.08;;;-1.18;100.0
63691;BME280;49837;57.280;27.070;2023-02-18T03:33:45;97523.7;;;-1.19;100.0
63691;BME280;49837;57.280;27.070;2023-02-18T03:34:49;97526.95;;;-1.17;100.0
63691;BME280;49837;57.280;27.070;2023-02-18T03:35:48;97527.8;;;-1.17;100.0
63691;BME280;49837;57.280;27.070;2023-02-18T03:36:48;97523.55;;;-1.16;100.0
63691;BME280;49837;57.280;27.070;2023-02-18T03:38:55;97526.59;;;-1.17;100.0
63691;BME280;49837;57.280;27.070;2023-02-18T03:39:53;97524.16;;;-1.14;100.0
63691;BME280;49837;57.280;27.070;2023-02-18T03:40:52;97523.88;;;-1.13;100.0
63691;BME280;49837;57.280;27.070;2023-02-18T03:41:52;97513.03;;;-1.18;100.0
63691;BME280;49837;57.280;27.070;2023-02-18T03:42:53;97517.8;;;-1.15;100.0
63691;BME280;49837;57.280;27.070;2023-02-18T03:43:58;97517.16;;;-1.13;100.0
63691;BME280;49837;57.280;27.070;2023-02-18T03:44:56;97507.27;;;-1.1;100.0
63691;BME280;49837;57.280;27.070;2023-02-18T03:45:57;97510.03;;;-1.12;100.0
63691;BME280;49837;57.280;27.070;2023-02-18T03:46:57;97499.0;;;-1.09;100.0
63691;BME280;49837;57.280;27.070;2023-02-18T03:47:57;97502.38;;;-1.07;100.0
63691;BME280;49837;57.280;27.070;2023-02-18T03:48:58;97499.88;;;-1.09;100.0
63691;BME280;49837;57.280;27.070;2023-02-18T03:49:58;97497.14;;;-1.13;100.0
63691;BME280;49837;57.280;27.070;2023-02-18T03:50:58;97500.67;;;-1.17;100.0
63691;BME280;49837;57.280;27.070;2023-02-18T03:51:58;97494.99;;;-1.16;100.0
63691;BME280;49837;57.280;27.070;2023-02-18T03:52:59;97498.23;;;-1.14;100.0
63691;BME280;49837;57.280;27.070;2023-02-18T03:53:59;97496.6;;;-1.15;100.0
63691;BME280;49837;57.280;27.070;2023-02-18T03:54:59;97497.79;;;-1.13;100.0
63691;BME280;49837;57.280;27.070;2023-02-18T03:56:00;97500.97;;;-1.12;100.0
63691;BME280;49837;57.280;27.070;2023-02-18T03:57:00;97496.55;;;-1.12;100.0
63691;BME280;49837;57.280;27.070;2023-02-18T03:58:00;97495.88;;;-1.16;100.0
63691;BME280;49837;57.280;27.070;2023-02-18T03:59:01;97489.44;;;-1.15;100.0
63691;BME280;49837;57.280;27.070;2023-02-18T04:00:01;97485.95;;;-1.18;100.0
63691;BME280;49837;57.280;27.070;2023-02-18T04:01:02;97481.19;;;-1.16;100.0
63691;BME280;49837;57.280;27.070;2023-02-18T04:02:02;97489.22;;;-1.14;100.0
63691;BME280;49837;57.280;27.070;2023-02-18T04:03:02;97487.17;;;-1.1;100.0
63691;BME280;49837;57.280;27.070;2023-02-18T04:04:02;97484.91;;;-1.11;100.0
63691;BME280;49837;57.280;27.070;2023-02-18T04:05:03;97483.62;;;-1.13;100.0
63691;BME280;49837;57.280;27.070;2023-02-18T04:06:03;97479.91;;;-1.15;100.0
63691;BME280;49837;57.280;27.070;2023-02-18T04:07:03;97482.2;;;-1.15;100.0
63691;BME280;49837;57.280;27.070;2023-02-18T04:08:04;97478.5;;;-1.16;100.0
63691;BME280;49837;57.280;27.070;2023-02-18T04:09:04;97479.59;;;-1.09;100.0
63691;BME280;49837;57.280;27.070;2023-02-18T04:10:05;97473.98;;;-1.07;100.0
63691;BME280;49837;57.280;27.070;2023-02-18T04:11:04;97477.08;;;-1.09;100.0
63691;BME280;49837;57.280;27.070;2023-02-18T04:12:05;97474.12;;;-1.06;100.0
63691;BME280;49837;57.280;27.070;2023-02-18T04:13:05;97471.11;;;-1.06;100.0
63691;BME280;49837;57.280;27.070;2023-02-18T04:14:06;97470.27;;;-1.05;100.0
63691;BME280;49837;57.280;27.070;2023-02-18T04:15:06;97474.19;;;-1.05;100.0
63691;BME280;49837;57.280;27.070;2023-02-18T04:16:06;97473.61;;;-1.08;100.0
63691;BME280;49837;57.280;27.070;2023-02-18T04:17:06;97472.47;;;-1.08;100.0
63691;BME280;49837;57.280;27.070;2023-02-18T04:18:07;97468.65;;;-1.06;100.0
63691;BME280;49837;57.280;27.070;2023-02-18T04:19:07;97472.02;;;-1.07;100.0
63691;BME280;49837;57.280;27.070;2023-02-18T04:20:08;97459.09;;;-1.07;100.0
63691;BME280;49837;57.280;27.070;2023-02-18T04:21:08;97463.74;;;-1.06;100.0
63691;BME280;49837;57.280;27.070;2023-02-18T04:22:08;97453.88;;;-1.04;100.0
63691;BME280;49837;57.280;27.070;2023-02-18T04:23:09;97459.22;;;-1.02;100.0
63691;BME280;49837;57.280;27.070;2023-02-18T04:24:09;97461.77;;;-0.99;100.0
63691;BME280;49837;57.280;27.070;2023-02-18T04:25:09;97460.23;;;-1.03;100.0
63691;BME280;49837;57.280;27.070;2023-02-18T04:26:09;97457.81;;;-1.02;100.0
63691;BME280;49837;57.280;27.070;2023-02-18T04:27:10;97461.44;;;-0.99;100.0
63691;BME280;49837;57.280;27.070;2023-02-18T04:28:13;97455.32;;;-1.03;100.0
63691;BME280;49837;57.280;27.070;2023-02-18T04:29:11;97453.05;;;-1.04;100.0
63691;BME280;49837;57.280;27.070;2023-02-18T04:30:11;97452.7;;;-0.98;100.0
63691;BME280;49837;57.280;27.070;2023-02-18T04:31:11;97450.27;;;-1.01;100.0
63691;BME280;49837;57.280;27.070;2023-02-18T04:32:12;97449.12;;;-1.01;100.0
63691;BME280;49837;57.280;27.070;2023-02-18T04:33:12;97447.02;;;-0.95;100.0
63691;BME280;49837;57.280;27.070;2023-02-18T04:34:12;97444.1;;;-0.97;100.0
63691;BME280;49837;57.280;27.070;2023-02-18T04:35:13;97445.83;;;-0.97;100.0
63691;BME280;49837;57.280;27.070;2023-02-18T04:36:13;97442.57;;;-1.01;100.0
63691;BME280;49837;57.280;27.070;2023-02-18T04:37:13;97442.49;;;-0.97;100.0
63691;BME280;49837;57.280;27.070;2023-02-18T04:38:14;97441.52;;;-0.95;100.0
63691;BME280;49837;57.280;27.070;2023-02-18T04:39:14;97445.95;;;-0.93;100.0
63691;BME280;49837;57.280;27.070;2023-02-18T04:40:15;97441.27;;;-0.94;100.0
63691;BME280;49837;57.280;27.070;2023-02-18T04:41:14;97445.61;;;-0.95;100.0
63691;BME280;49837;57.280;27.070;2023-02-18T04:42:15;97441.17;;;-0.94;100.0
63691;BME280;49837;57.280;27.070;2023-02-18T04:43:15;97438.6;;;-0.97;100.0
63691;BME280;49837;57.280;27.070;2023-02-18T04:44:16;97438.45;;;-0.94;100.0
63691;BME280;49837;57.280;27.070;2023-02-18T04:45:16;97437.09;;;-0.98;100.0
63691;BME280;49837;57.280;27.070;2023-02-18T04:46:16;97439.2;;;-0.94;100.0
63691;BME280;49837;57.280;27.070;2023-02-18T04:47:17;97439.16;;;-0.98;100.0
63691;BME280;49837;57.280;27.070;2023-02-18T04:48:17;97439.7;;;-0.94;100.0
63691;BME280;49837;57.280;27.070;2023-02-18T04:49:17;97439.48;;;-0.92;100.0
63691;BME280;49837;57.280;27.070;2023-02-18T04:50:18;97431.92;;;-0.98;100.0
63691;BME280;49837;57.280;27.070;2023-02-18T04:51:18;97433.27;;;-0.98;100.0
63691;BME280;49837;57.280;27.070;2023-02-18T04:52:18;97429.97;;;-0.95;100.0
63691;BME280;49837;57.280;27.070;2023-02-18T04:53:19;97433.22;;;-0.99;100.0
63691;BME280;49837;57.280;27.070;2023-02-18T04:54:19;97435.08;;;-0.96;100.0
63691;BME280;49837;57.280;27.070;2023-02-18T04:55:19;97433.2;;;-0.97;100.0
63691;BME280;49837;57.280;27.070;2023-02-18T04:56:19;97431.7;;;-0.95;100.0
63691;BME280;49837;57.280;27.070;2023-02-18T04:57:20;97426.02;;;-0.93;100.0
63691;BME280;49837;57.280;27.070;2023-02-18T04:58:20;97434.98;;;-0.95;100.0
63691;BME280;49837;57.280;27.070;2023-02-18T04:59:21;97435.7;;;-0.94;100.0
63691;BME280;49837;57.280;27.070;2023-02-18T05:00:21;97436.0;;;-0.94;100.0
63691;BME280;49837;57.280;27.070;2023-02-18T05:01:21;97436.25;;;-0.9;100.0
63691;BME280;49837;57.280;27.070;2023-02-18T05:02:22;97428.97;;;-0.94;100.0
63691;BME280;49837;57.280;27.070;2023-02-18T05:03:22;97429.3;;;-0.91;100.0
63691;BME280;49837;57.280;27.070;2023-02-18T05:04:22;97432.48;;;-0.9;100.0
63691;BME280;49837;57.280;27.070;2023-02-18T05:05:23;97420.27;;;-0.9;100.0
63691;BME280;49837;57.280;27.070;2023-02-18T05:06:23;97418.44;;;-0.92;100.0
63691;BME280;49837;57.280;27.070;2023-02-18T05:07:23;97426.16;;;-0.86;100.0
63691;BME280;49837;57.280;27.070;2023-02-18T05:08:24;97425.17;;;-0.87;100.0
63691;BME280;49837;57.280;27.070;2023-02-18T05:09:24;97423.48;;;-0.85;100.0
63691;BME280;49837;57.280;27.070;2023-02-18T05:10:24;97424.16;;;-0.86;100.0
63691;BME280;49837;57.280;27.070;2023-02-18T05:11:24;97421.86;;;-0.88;100.0
63691;BME280;49837;57.280;27.070;2023-02-18T05:12:25;97423.98;;;-0.88;100.0
63691;BME280;49837;57.280;27.070;2023-02-18T05:13:25;97417.27;;;-0.9;100.0
63691;BME280;49837;57.280;27.070;2023-02-18T05:14:26;97423.8;;;-0.84;100.0
63691;BME280;49837;57.280;27.070;2023-02-18T05:15:26;97419.49;;;-0.82;100.0
63691;BME280;49837;57.280;27.070;2023-02-18T05:16:26;97414.75;;;-0.83;100.0
63691;BME280;49837;57.280;27.070;2023-02-18T05:17:26;97416.73;;;-0.83;100.0
63691;BME280;49837;57.280;27.070;2023-02-18T05:18:27;97414.55;;;-0.82;100.0
63691;BME280;49837;57.280;27.070;2023-02-18T05:19:27;97411.2;;;-0.85;100.0
63691;BME280;49837;57.280;27.070;2023-02-18T05:20:28;97416.08;;;-0.84;100.0
63691;BME280;49837;57.280;27.070;2023-02-18T05:21:28;97414.81;;;-0.82;100.0
63691;BME280;49837;57.280;27.070;2023-02-18T05:22:28;97414.75;;;-0.82;100.0
63691;BME280;49837;57.280;27.070;2023-02-18T05:23:29;97410.86;;;-0.8;100.0
63691;BME280;49837;57.280;27.070;2023-02-18T05:24:29;97402.87;;;-0.82;100.0
63691;BME280;49837;57.280;27.070;2023-02-18T05:25:29;97403.83;;;-0.78;100.0
63691;BME280;49837;57.280;27.070;2023-02-18T05:26:30;97408.96;;;-0.8;100.0
63691;BME280;49837;57.280;27.070;2023-02-18T05:27:30;97401.12;;;-0.77;100.0
63691;BME280;49837;57.280;27.070;2023-02-18T05:28:31;97405.43;;;-0.8;100.0
63691;BME280;49837;57.280;27.070;2023-02-18T05:29:31;97402.53;;;-0.76;100.0
63691;BME280;49837;57.280;27.070;2023-02-18T05:30:31;97399.89;;;-0.75;100.0
63691;BME280;49837;57.280;27.070;2023-02-18T05:31:31;97404.25;;;-0.73;100.0
63691;BME280;49837;57.280;27.070;2023-02-18T05:32:32;97403.44;;;-0.79;100.0
63691;BME280;49837;57.280;27.070;2023-02-18T05:33:32;97399.5;;;-0.82;100.0
63691;BME280;49837;57.280;27.070;2023-02-18T05:34:32;97394.02;;;-0.76;100.0
63691;BME280;49837;57.280;27.070;2023-02-18T05:35:33;97399.61;;;-0.71;100.0
63691;BME280;49837;57.280;27.070;2023-02-18T05:36:33;97395.81;;;-0.79;100.0
63691;BME280;49837;57.280;27.070;2023-02-18T05:37:33;97396.7;;;-0.78;100.0
63691;BME280;49837;57.280;27.070;2023-02-18T05:38:34;97396.94;;;-0.75;100.0
63691;BME280;49837;57.280;27.070;2023-02-18T05:39:34;97396.27;;;-0.78;100.0
63691;BME280;49837;57.280;27.070;2023-02-18T05:40:34;97395.32;;;-0.79;100.0
63691;BME280;49837;57.280;27.070;2023-02-18T05:41:35;97395.78;;;-0.77;100.0
63691;BME280;49837;57.280;27.070;2023-02-18T05:42:35;97396.47;;;-0.78;100.0
63691;BME280;49837;57.280;27.070;2023-02-18T05:43:35;97390.38;;;-0.79;100.0
63691;BME280;49837;57.280;27.070;2023-02-18T05:44:36;97400.02;;;-0.74;100.0
63691;BME280;49837;57.280;27.070;2023-02-18T05:45:36;97393.12;;;-0.78;100.0
63691;BME280;49837;57.280;27.070;2023-02-18T05:46:36;97395.53;;;-0.74;100.0
63691;BME280;49837;57.280;27.070;2023-02-18T05:47:37;97396.61;;;-0.75;100.0
63691;BME280;49837;57.280;27.070;2023-02-18T05:48:37;97395.6;;;-0.74;100.0
63691;BME280;49837;57.280;27.070;2023-02-18T05:49:39;97395.86;;;-0.74;100.0
63691;BME280;49837;57.280;27.070;2023-02-18T05:50:38;97396.2;;;-0.69;100.0
63691;BME280;49837;57.280;27.070;2023-02-18T05:51:38;97395.45;;;-0.71;100.0
63691;BME280;49837;57.280;27.070;2023-02-18T05:52:38;97393.24;;;-0.74;100.0
63691;BME280;49837;57.280;27.070;2023-02-18T05:53:39;97388.98;;;-0.74;100.0
63691;BME280;49837;57.280;27.070;2023-02-18T05:54:39;97391.47;;;-0.75;100.0
63691;BME280;49837;57.280;27.070;2023-02-18T05:55:39;97385.45;;;-0.74;100.0
63691;BME280;49837;57.280;27.070;2023-02-18T05:56:40;97383.58;;;-0.77;100.0
63691;BME280;49837;57.280;27.070;2023-02-18T05:57:40;97384.71;;;-0.79;100.0
63691;BME280;49837;57.280;27.070;2023-02-18T05:58:40;97386.91;;;-0.78;100.0
63691;BME280;49837;57.280;27.070;2023-02-18T05:59:41;97387.03;;;-0.72;100.0
63691;BME280;49837;57.280;27.070;2023-02-18T06:00:41;97387.2;;;-0.72;100.0
63691;BME280;49837;57.280;27.070;2023-02-18T06:01:41;97383.17;;;-0.71;100.0
63691;BME280;49837;57.280;27.070;2023-02-18T06:02:42;97389.43;;;-0.7;100.0
63691;BME280;49837;57.280;27.070;2023-02-18T06:03:42;97390.38;;;-0.77;100.0
63691;BME280;49837;57.280;27.070;2023-02-18T06:04:42;97385.16;;;-0.75;100.0
63691;BME280;49837;57.280;27.070;2023-02-18T06:05:43;97385.39;;;-0.72;100.0
63691;BME280;49837;57.280;27.070;2023-02-18T06:06:43;97383.8;;;-0.7;100.0
63691;BME280;49837;57.280;27.070;2023-02-18T06:07:43;97386.03;;;-0.68;100.0
63691;BME280;49837;57.280;27.070;2023-02-18T06:08:44;97384.91;;;-0.69;100.0
63691;BME280;49837;57.280;27.070;2023-02-18T06:09:44;97381.52;;;-0.76;100.0
63691;BME280;49837;57.280;27.070;2023-02-18T06:10:45;97385.59;;;-0.73;100.0
63691;BME280;49837;57.280;27.070;2023-02-18T06:11:45;97382.36;;;-0.69;100.0
63691;BME280;49837;57.280;27.070;2023-02-18T06:12:45;97384.59;;;-0.67;100.0
63691;BME280;49837;57.280;27.070;2023-02-18T06:13:45;97383.77;;;-0.67;100.0
63691;BME280;49837;57.280;27.070;2023-02-18T06:14:46;97381.95;;;-0.72;100.0
63691;BME280;49837;57.280;27.070;2023-02-18T06:15:49;97380.21;;;-0.74;100.0
63691;BME280;49837;57.280;27.070;2023-02-18T06:16:47;97377.23;;;-0.67;100.0
63691;BME280;49837;57.280;27.070;2023-02-18T06:17:47;97372.42;;;-0.63;100.0
63691;BME280;49837;57.280;27.070;2023-02-18T06:18:48;97369.91;;;-0.63;100.0
63691;BME280;49837;57.280;27.070;2023-02-18T06:19:48;97372.4;;;-0.62;100.0
63691;BME280;49837;57.280;27.070;2023-02-18T06:20:48;97374.8;;;-0.59;100.0
63691;BME280;49837;57.280;27.070;2023-02-18T06:21:49;97371.0;;;-0.67;100.0
63691;BME280;49837;57.280;27.070;2023-02-18T06:22:49;97365.7;;;-0.64;100.0
63691;BME280;49837;57.280;27.070;2023-02-18T06:23:50;97365.6;;;-0.67;100.0